Time;durP1;ratioP1;P1;durP2;ratioP2;P2;SDS_P1;SDS_P2;PMS_P1;PMS_P2;Temp;Humidity;BMP_temperature;BMP_pressure;BME280_temperature;BME280_humidity;BME280_pressure;Samples;Min_cycle;Max_cycle;Signal;HPM_P1;HPM_P2
2021/03/30 00:00:52;;;;;;;50.50;27.50;;;;;;;;;;5015412;28;20022;-43
2021/03/30 00:03:18;;;;;;;51.28;28.00;;;;;;;;;;5015198;28;20026;-43
2021/03/30 00:05:44;;;;;;;56.15;27.80;;;;;;;;;;5015311;28;20029;-43
2021/03/30 00:08:11;;;;;;;53.92;29.10;;;;;;;;;;5015122;28;20042;-43
2021/03/30 00:10:38;;;;;;;42.80;21.42;;;;;;;;;;5014883;28;20026;-43
2021/03/30 00:13:04;;;;;;;47.47;24.50;;;;;;;;;;5014704;28;20490;-43
2021/03/30 00:15:31;;;;;;;47.83;24.35;;;;;;;;;;5014868;28;20034;-42
2021/03/30 00:17:57;;;;;;;46.50;24.27;;;;;;;;;;5014720;28;20454;-43
2021/03/30 00:20:23;;;;;;;45.38;25.15;;;;;;;;;;5014765;28;20101;-43
2021/03/30 00:22:49;;;;;;;49.53;23.85;;;;;;;;;;5014982;28;20373;-43
2021/03/30 00:25:15;;;;;;;50.28;24.45;;;;;;;;;;5014592;28;20018;-43
2021/03/30 00:27:42;;;;;;;40.55;23.00;;;;;;;;;;5014810;28;20112;-43
2021/03/30 00:30:08;;;;;;;51.47;25.92;;;;;;;;;;5014775;28;20421;-44
2021/03/30 00:32:34;;;;;;;47.85;25.42;;;;;;;;;;5014829;28;20024;-44
2021/03/30 00:35:00;;;;;;;53.13;25.90;;;;;;;;;;5014463;28;20025;-44
2021/03/30 00:37:27;;;;;;;45.60;25.08;;;;;;;;;;5014771;28;20030;-44
2021/03/30 00:39:53;;;;;;;44.97;24.58;;;;;;;;;;5014392;28;20022;-42
2021/03/30 00:42:21;;;;;;;54.38;24.92;;;;;;;;;;5014514;28;20497;-42
2021/03/30 00:44:47;;;;;;;42.75;25.67;;;;;;;;;;5014530;28;20026;-42
2021/03/30 00:47:18;;;;;;;51.92;24.23;;;;;;;;;;5014662;28;20087;-43
2021/03/30 00:49:44;;;;;;;45.03;24.30;;;;;;;;;;5014393;28;20025;-43
2021/03/30 00:52:11;;;;;;;43.22;23.17;;;;;;;;;;5014383;28;20262;-41
2021/03/30 00:54:37;;;;;;;46.97;23.95;;;;;;;;;;5014385;28;20021;-42
2021/03/30 00:57:07;;;;;;;44.95;22.80;;;;;;;;;;5014448;28;20030;-43
2021/03/30 00:59:33;;;;;;;43.75;23.73;;;;;;;;;;5014172;28;20022;-42
2021/03/30 01:01:59;;;;;;;41.60;23.13;;;;;;;;;;5014467;28;20056;-42
2021/03/30 01:04:25;;;;;;;42.13;21.50;;;;;;;;;;5014121;28;20026;-48
2021/03/30 01:06:52;;;;;;;38.78;21.52;;;;;;;;;;5013167;28;20038;-44
2021/03/30 01:09:36;;;;;;;47.78;22.42;;;;;;;;;;5013918;28;20050;-43
2021/03/30 01:12:20;;;;;;;40.78;21.10;;;;;;;;;;5013795;28;20050;-46
2021/03/30 01:14:57;;;;;;;45.60;22.63;;;;;;;;;;5013988;28;20038;-47
2021/03/30 01:17:36;;;;;;;44.10;23.27;;;;;;;;;;5014165;28;20021;-44
2021/03/30 01:20:02;;;;;;;51.80;24.75;;;;;;;;;;5013826;28;20092;-43
2021/03/30 01:22:31;;;;;;;44.08;24.52;;;;;;;;;;5014103;28;20064;-43
2021/03/30 01:24:59;;;;;;;44.88;24.48;;;;;;;;;;5013730;28;20512;-45
2021/03/30 01:27:44;;;;;;;39.90;24.02;;;;;;;;;;5013684;28;20437;-44
2021/03/30 01:30:11;;;;;;;51.85;26.88;;;;;;;;;;5013723;28;20398;-43
2021/03/30 01:32:44;;;;;;;62.15;35.83;;;;;;;;;;5013661;28;20029;-45
2021/03/30 01:35:14;;;;;;;61.65;35.00;;;;;;;;;;5013548;28;20053;-43
2021/03/30 01:37:47;;;;;;;51.92;28.08;;;;;;;;;;5013701;28;20021;-47
2021/03/30 01:40:15;;;;;;;54.67;30.63;;;;;;;;;;5013444;28;20034;-44
2021/03/30 01:42:42;;;;;;;52.50;28.70;;;;;;;;;;5013598;28;20045;-43
2021/03/30 01:45:09;;;;;;;46.65;26.23;;;;;;;;;;5013503;28;20018;-43
2021/03/30 01:47:39;;;;;;;49.05;26.40;;;;;;;;;;5028394;28;20553;-43
2021/03/30 01:50:06;;;;;;;41.55;23.52;;;;;;;;;;5013504;28;20022;-42
2021/03/30 01:52:34;;;;;;;42.00;22.85;;;;;;;;;;5013527;28;20026;-42
2021/03/30 01:55:00;;;;;;;52.80;24.73;;;;;;;;;;5013989;28;20029;-42
2021/03/30 01:57:28;;;;;;;47.20;24.60;;;;;;;;;;5013583;28;20025;-42
2021/03/30 01:59:54;;;;;;;51.25;25.77;;;;;;;;;;5013351;28;20026;-42
2021/03/30 02:02:21;;;;;;;46.20;24.65;;;;;;;;;;5013506;28;20036;-42
2021/03/30 02:04:48;;;;;;;45.05;23.95;;;;;;;;;;5013517;28;20045;-42
2021/03/30 02:07:16;;;;;;;46.95;23.33;;;;;;;;;;5013203;28;20476;-44
2021/03/30 02:09:43;;;;;;;51.05;24.08;;;;;;;;;;5013364;28;20048;-46
2021/03/30 02:12:14;;;;;;;45.78;24.25;;;;;;;;;;5013127;28;20461;-42
2021/03/30 02:14:41;;;;;;;42.00;21.60;;;;;;;;;;5013605;28;20065;-43
2021/03/30 02:17:30;;;;;;;45.42;23.35;;;;;;;;;;5013420;28;20255;-44
2021/03/30 02:20:00;;;;;;;46.28;23.25;;;;;;;;;;4956385;29;20117;-43
2021/03/30 02:22:44;;;;;;;45.03;23.80;;;;;;;;;;4956740;29;20114;-44
2021/03/30 02:25:10;;;;;;;48.70;23.75;;;;;;;;;;4956598;29;20039;-45
2021/03/30 02:27:40;;;;;;;46.08;23.75;;;;;;;;;;4956763;29;20053;-44
2021/03/30 02:30:07;;;;;;;50.22;24.05;;;;;;;;;;4956433;29;20027;-43
2021/03/30 02:32:33;;;;;;;54.65;28.40;;;;;;;;;;4956787;29;20122;-43
2021/03/30 02:35:00;;;;;;;54.22;27.05;;;;;;;;;;4956287;29;20493;-41
2021/03/30 02:37:26;;;;;;;70.82;33.58;;;;;;;;;;4956360;29;20067;-42
2021/03/30 02:39:52;;;;;;;66.43;31.85;;;;;;;;;;4956126;28;20026;-44
2021/03/30 02:42:19;;;;;;;65.70;31.02;;;;;;;;;;4956293;29;20043;-42
2021/03/30 02:44:46;;;;;;;58.67;28.98;;;;;;;;;;4956309;29;20063;-43
2021/03/30 02:47:16;;;;;;;56.63;28.67;;;;;;;;;;4940315;29;20520;-45
2021/03/30 02:49:44;;;;;;;58.20;28.88;;;;;;;;;;4956085;29;20380;-43
2021/03/30 02:52:10;;;;;;;59.55;30.58;;;;;;;;;;4955992;29;20023;-43
2021/03/30 02:54:36;;;;;;;63.40;31.75;;;;;;;;;;4956231;29;20031;-46
2021/03/30 02:57:03;;;;;;;80.32;35.08;;;;;;;;;;4988937;28;20389;-43
2021/03/30 02:59:32;;;;;;;65.25;33.97;;;;;;;;;;5016368;28;20076;-42
2021/03/30 03:01:58;;;;;;;63.42;31.25;;;;;;;;;;5016284;28;20073;-43
2021/03/30 03:04:28;;;;;;;59.90;31.52;;;;;;;;;;5016463;28;20017;-42
2021/03/30 03:06:54;;;;;;;61.10;31.50;;;;;;;;;;5016126;28;20018;-42
2021/03/30 03:09:20;;;;;;;57.70;31.52;;;;;;;;;;5016196;28;20057;-42
2021/03/30 03:11:47;;;;;;;57.97;29.65;;;;;;;;;;5015846;28;20145;-41
2021/03/30 03:14:14;;;;;;;58.75;29.75;;;;;;;;;;5016399;28;20121;-42
2021/03/30 03:16:41;;;;;;;65.38;29.02;;;;;;;;;;5016101;28;20018;-45
2021/03/30 03:19:08;;;;;;;60.58;29.98;;;;;;;;;;5015971;28;20022;-44
2021/03/30 03:21:34;;;;;;;50.35;26.75;;;;;;;;;;5015814;28;20367;-43
2021/03/30 03:24:02;;;;;;;50.80;25.13;;;;;;;;;;5016128;28;20356;-43
2021/03/30 03:26:28;;;;;;;47.03;24.67;;;;;;;;;;5016034;28;20420;-44
2021/03/30 03:28:54;;;;;;;47.95;23.45;;;;;;;;;;5015804;28;20033;-43
2021/03/30 03:31:26;;;;;;;47.90;25.13;;;;;;;;;;5014845;28;20061;-43
2021/03/30 03:33:53;;;;;;;46.15;24.25;;;;;;;;;;5014463;28;20413;-43
2021/03/30 03:36:19;;;;;;;43.25;22.58;;;;;;;;;;5015585;28;20022;-44
2021/03/30 03:38:45;;;;;;;44.00;22.42;;;;;;;;;;5015517;28;20381;-44
2021/03/30 03:41:15;;;;;;;42.95;21.70;;;;;;;;;;5015588;28;20034;-43
2021/03/30 03:43:44;;;;;;;53.38;22.42;;;;;;;;;;5015601;28;20030;-43
2021/03/30 03:46:14;;;;;;;48.70;22.65;;;;;;;;;;5015631;28;20029;-44
2021/03/30 03:48:41;;;;;;;44.83;22.17;;;;;;;;;;5015575;28;20030;-43
2021/03/30 03:51:07;;;;;;;43.22;21.75;;;;;;;;;;5015167;28;20111;-43
2021/03/30 03:53:37;;;;;;;40.97;21.83;;;;;;;;;;5015418;28;20026;-43
2021/03/30 03:56:04;;;;;;;40.88;21.63;;;;;;;;;;5015318;28;20113;-42
2021/03/30 03:58:50;;;;;;;41.15;20.30;;;;;;;;;;5015352;28;20029;-43
2021/03/30 04:01:20;;;;;;;41.30;20.98;;;;;;;;;;5015065;28;20018;-43
2021/03/30 04:03:51;;;;;;;43.10;21.40;;;;;;;;;;5015106;28;20029;-43
2021/03/30 04:06:18;;;;;;;49.05;26.17;;;;;;;;;;5015412;28;20022;-44
2021/03/30 04:08:52;;;;;;;43.72;24.48;;;;;;;;;;5015151;28;20049;-43
2021/03/30 04:11:19;;;;;;;49.83;25.15;;;;;;;;;;5014745;28;20121;-43
2021/03/30 04:13:45;;;;;;;56.20;29.40;;;;;;;;;;5014828;28;20073;-42
2021/03/30 04:16:12;;;;;;;41.70;21.50;;;;;;;;;;5014978;28;20072;-43
2021/03/30 04:18:42;;;;;;;43.33;22.88;;;;;;;;;;5015101;28;20113;-43
2021/03/30 04:21:17;;;;;;;50.47;23.58;;;;;;;;;;5014775;28;20061;-42
2021/03/30 04:23:47;;;;;;;50.83;25.00;;;;;;;;;;5014761;28;20029;-42
2021/03/30 04:26:16;;;;;;;51.60;23.00;;;;;;;;;;5014865;28;20018;-41
2021/03/30 04:28:42;;;;;;;40.50;22.85;;;;;;;;;;5014593;28;20049;-41
2021/03/30 04:31:08;;;;;;;45.40;23.02;;;;;;;;;;5014731;28;20050;-43
2021/03/30 04:33:34;;;;;;;38.63;22.10;;;;;;;;;;5014673;28;20100;-46
2021/03/30 04:36:00;;;;;;;43.08;21.90;;;;;;;;;;5014342;28;20430;-41
2021/03/30 04:38:28;;;;;;;48.25;22.42;;;;;;;;;;5014701;28;20026;-41
2021/03/30 04:40:54;;;;;;;46.05;22.60;;;;;;;;;;5014469;28;20033;-42
2021/03/30 04:43:24;;;;;;;43.72;23.77;;;;;;;;;;5014485;28;20022;-44
2021/03/30 04:45:52;;;;;;;40.42;22.10;;;;;;;;;;5014674;28;20034;-43
2021/03/30 04:48:21;;;;;;;45.78;24.10;;;;;;;;;;5014259;28;20442;-42
2021/03/30 04:50:47;;;;;;;41.28;21.73;;;;;;;;;;5014281;28;20018;-42
2021/03/30 04:53:16;;;;;;;41.45;23.02;;;;;;;;;;5014556;28;20076;-42
2021/03/30 04:55:42;;;;;;;41.20;21.52;;;;;;;;;;5014241;28;20029;-42
2021/03/30 04:58:08;;;;;;;42.50;21.48;;;;;;;;;;5014189;28;20118;-43
2021/03/30 05:00:34;;;;;;;41.03;21.70;;;;;;;;;;5014342;28;20029;-42
2021/03/30 05:03:02;;;;;;;45.65;24.42;;;;;;;;;;5014186;28;20077;-42
2021/03/30 05:05:28;;;;;;;49.05;23.02;;;;;;;;;;5014218;28;20021;-42
2021/03/30 05:07:54;;;;;;;56.70;23.10;;;;;;;;;;5014044;28;20437;-42
2021/03/30 05:10:21;;;;;;;51.03;22.05;;;;;;;;;;5013840;28;20106;-42
2021/03/30 05:12:47;;;;;;;49.13;23.42;;;;;;;;;;5013864;28;20459;-43
2021/03/30 05:15:13;;;;;;;50.58;24.52;;;;;;;;;;5028742;28;20124;-43
2021/03/30 05:17:39;;;;;;;56.42;26.25;;;;;;;;;;5014251;28;20125;-43
2021/03/30 05:20:06;;;;;;;45.67;26.33;;;;;;;;;;5014022;28;20072;-42
2021/03/30 05:22:32;;;;;;;66.75;36.72;;;;;;;;;;5013981;28;20504;-44
2021/03/30 05:25:00;;;;;;;65.88;34.20;;;;;;;;;;5013819;28;20025;-43
2021/03/30 05:27:26;;;;;;;56.25;27.77;;;;;;;;;;5014017;28;20104;-43
2021/03/30 05:29:53;;;;;;;55.95;25.85;;;;;;;;;;5013660;28;20025;-43
2021/03/30 05:32:19;;;;;;;51.13;25.70;;;;;;;;;;5013934;28;20022;-44
2021/03/30 05:34:51;;;;;;;51.35;23.45;;;;;;;;;;5013868;28;20083;-43
2021/03/30 05:37:17;;;;;;;49.35;24.17;;;;;;;;;;5013891;28;20101;-44
2021/03/30 05:39:44;;;;;;;46.15;23.48;;;;;;;;;;5013790;28;20072;-44
2021/03/30 05:42:10;;;;;;;42.13;23.45;;;;;;;;;;5013889;28;20095;-44
2021/03/30 05:44:36;;;;;;;49.47;25.02;;;;;;;;;;5013540;28;20117;-41
2021/03/30 05:49:36;;;;;;;56.10;31.67;;;;;;;;;;5013591;28;20080;-44
2021/03/30 05:52:02;;;;;;;65.82;34.78;;;;;;;;;;5013457;28;20351;-43
2021/03/30 05:54:30;;;;;;;67.78;34.40;;;;;;;;;;5016337;28;20034;-44
2021/03/30 05:56:58;;;;;;;65.07;34.25;;;;;;;;;;5017616;28;20062;-45
2021/03/30 05:59:24;;;;;;;66.97;37.47;;;;;;;;;;5017782;28;20029;-44
2021/03/30 06:01:51;;;;;;;97.60;50.63;;;;;;;;;;5017698;28;20029;-44
2021/03/30 06:04:18;;;;;;;126.18;51.90;;;;;;;;;;5032876;28;20069;-42
2021/03/30 06:06:45;;;;;;;102.60;54.60;;;;;;;;;;5017372;28;20478;-44
2021/03/30 06:09:11;;;;;;;104.93;55.63;;;;;;;;;;5031859;28;20054;-50
2021/03/30 06:11:37;;;;;;;87.97;52.55;;;;;;;;;;5016909;28;20371;-42
2021/03/30 06:14:03;;;;;;;97.18;55.47;;;;;;;;;;5017457;28;20120;-45
2021/03/30 06:16:30;;;;;;;96.78;51.47;;;;;;;;;;5017299;28;20014;-41
2021/03/30 06:19:06;;;;;;;103.82;58.22;;;;;;;;;;5017476;28;20041;-41
2021/03/30 06:21:38;;;;;;;76.75;45.05;;;;;;;;;;5017219;28;20448;-43
2021/03/30 06:24:24;;;;;;;102.53;44.22;;;;;;;;;;5017431;28;20029;-44
2021/03/30 06:26:51;;;;;;;98.78;44.45;;;;;;;;;;5017298;28;20025;-45
2021/03/30 06:29:26;;;;;;;102.47;41.22;;;;;;;;;;5017067;28;20385;-44
2021/03/30 06:31:53;;;;;;;72.90;39.22;;;;;;;;;;5017196;28;20033;-44
2021/03/30 06:34:27;;;;;;;78.22;42.83;;;;;;;;;;5016819;28;20501;-44
2021/03/30 06:36:53;;;;;;;76.43;41.72;;;;;;;;;;5016599;28;20360;-44
2021/03/30 06:39:26;;;;;;;127.30;43.28;;;;;;;;;;5016760;28;20054;-44
2021/03/30 06:42:15;;;;;;;71.90;38.28;;;;;;;;;;5016615;28;20037;-43
2021/03/30 06:44:42;;;;;;;71.32;38.20;;;;;;;;;;5016727;28;20030;-42
2021/03/30 06:47:18;;;;;;;74.60;41.03;;;;;;;;;;5016575;28;20026;-44
2021/03/30 06:49:54;;;;;;;67.45;39.33;;;;;;;;;;5016840;28;20050;-44
2021/03/30 06:52:28;;;;;;;60.80;30.80;;;;;;;;;;5016579;28;20092;-44
2021/03/30 06:54:54;;;;;;;99.03;54.55;;;;;;;;;;5016389;28;20478;-45
2021/03/30 06:57:39;;;;;;;64.30;36.35;;;;;;;;;;5016392;28;20033;-45
2021/03/30 07:00:11;;;;;;;64.30;36.03;;;;;;;;;;5016347;28;20022;-44
2021/03/30 07:02:56;;;;;;;54.08;30.02;;;;;;;;;;5016710;28;20048;-44
2021/03/30 07:05:30;;;;;;;50.92;30.98;;;;;;;;;;5016105;28;20036;-44
2021/03/30 07:08:03;;;;;;;56.28;33.25;;;;;;;;;;5016296;28;20124;-44
2021/03/30 07:10:30;;;;;;;52.70;30.67;;;;;;;;;;5015659;28;20030;-43
2021/03/30 07:12:57;;;;;;;53.20;32.17;;;;;;;;;;5015908;28;20050;-43
2021/03/30 07:15:24;;;;;;;55.30;29.95;;;;;;;;;;5016188;28;20026;-52
2021/03/30 07:18:00;;;;;;;63.88;38.88;;;;;;;;;;5016138;28;20022;-52
2021/03/30 07:20:26;;;;;;;60.25;35.67;;;;;;;;;;5016114;28;20125;-49
2021/03/30 07:22:53;;;;;;;75.07;43.08;;;;;;;;;;5015923;28;20072;-54
2021/03/30 07:25:23;;;;;;;52.58;28.23;;;;;;;;;;5016433;28;20036;-50
2021/03/30 07:28:06;;;;;;;73.22;39.53;;;;;;;;;;5015797;28;20116;-58
2021/03/30 07:30:35;;;;;;;92.20;52.88;;;;;;;;;;5016028;28;20030;-51
2021/03/30 07:33:03;;;;;;;109.50;61.67;;;;;;;;;;5015585;28;20036;-50
2021/03/30 07:35:30;;;;;;;61.50;34.22;;;;;;;;;;5015625;28;20033;-50
2021/03/30 07:38:05;;;;;;;81.22;47.30;;;;;;;;;;5015635;28;20026;-49
2021/03/30 07:40:31;;;;;;;119.55;68.95;;;;;;;;;;5015251;28;20037;-52
2021/03/30 07:42:58;;;;;;;91.93;52.67;;;;;;;;;;5015735;28;20034;-50
2021/03/30 07:45:28;;;;;;;97.90;54.72;;;;;;;;;;5015499;28;20018;-61
2021/03/30 07:47:55;;;;;;;91.85;52.15;;;;;;;;;;5015518;28;20091;-60
2021/03/30 07:50:24;;;;;;;68.28;36.17;;;;;;;;;;5015243;28;20025;-56
2021/03/30 07:52:52;;;;;;;69.80;41.10;;;;;;;;;;5015367;28;20088;-59
2021/03/30 07:55:27;;;;;;;69.88;39.53;;;;;;;;;;5015465;28;20037;-56
2021/03/30 07:58:12;;;;;;;75.53;41.10;;;;;;;;;;5015416;28;20044;-54
2021/03/30 08:00:39;;;;;;;121.72;66.90;;;;;;;;;;5030599;28;20474;-56
2021/03/30 08:03:06;;;;;;;147.15;83.13;;;;;;;;;;5014870;28;20100;-50
2021/03/30 08:05:32;;;;;;;115.90;63.67;;;;;;;;;;5015164;28;20076;-56
2021/03/30 08:08:01;;;;;;;118.60;67.75;;;;;;;;;;5015223;28;20113;-56
2021/03/30 08:10:30;;;;;;;57.45;32.10;;;;;;;;;;5014980;28;20038;-48
2021/03/30 08:13:14;;;;;;;73.68;42.40;;;;;;;;;;5014999;28;20096;-61
2021/03/30 08:15:44;;;;;;;116.60;64.22;;;;;;;;;;5014478;28;20025;-58
2021/03/30 08:18:12;;;;;;;99.47;54.10;;;;;;;;;;5029996;28;20022;-55
2021/03/30 08:20:56;;;;;;;126.95;72.05;;;;;;;;;;5014968;28;20053;-56
2021/03/30 08:23:25;;;;;;;94.63;46.28;;;;;;;;;;5015075;28;20057;-54
2021/03/30 08:25:53;;;;;;;68.03;37.83;;;;;;;;;;5014909;28;20018;-56
2021/03/30 08:28:37;;;;;;;120.50;61.50;;;;;;;;;;5014534;28;20044;-56
2021/03/30 08:31:04;;;;;;;67.65;34.58;;;;;;;;;;5014797;28;20088;-57
2021/03/30 08:33:33;;;;;;;78.07;36.42;;;;;;;;;;5014791;28;20029;-53
2021/03/30 08:36:16;;;;;;;104.90;55.65;;;;;;;;;;5014627;28;20433;-55
2021/03/30 08:38:49;;;;;;;62.78;35.88;;;;;;;;;;5014667;28;20049;-55
2021/03/30 08:41:33;;;;;;;69.65;36.60;;;;;;;;;;5014758;28;20453;-56
2021/03/30 08:44:18;;;;;;;58.88;33.17;;;;;;;;;;5014904;28;20382;-57
2021/03/30 08:46:45;;;;;;;50.25;29.42;;;;;;;;;;5014596;28;20026;-55
2021/03/30 08:49:32;;;;;;;60.05;31.73;;;;;;;;;;5014125;28;20046;-57
2021/03/30 08:52:04;;;;;;;59.67;31.23;;;;;;;;;;5014569;28;20026;-56
2021/03/30 08:54:31;;;;;;;55.72;28.55;;;;;;;;;;5014522;28;20040;-55
2021/03/30 08:56:59;;;;;;;58.38;30.10;;;;;;;;;;5014399;28;20777;-54
2021/03/30 08:59:27;;;;;;;48.83;27.42;;;;;;;;;;5014773;28;20030;-54
2021/03/30 09:01:57;;;;;;;44.28;24.75;;;;;;;;;;5014132;28;20026;-54
2021/03/30 09:04:24;;;;;;;47.53;25.40;;;;;;;;;;5014479;28;20058;-56
2021/03/30 09:06:54;;;;;;;48.75;24.98;;;;;;;;;;5014317;28;20018;-56
2021/03/30 09:09:25;;;;;;;52.20;27.95;;;;;;;;;;5014002;28;20033;-56
2021/03/30 09:11:52;;;;;;;41.67;21.92;;;;;;;;;;5014011;28;20469;-56
2021/03/30 09:14:19;;;;;;;36.88;19.98;;;;;;;;;;5014002;28;20040;-56
2021/03/30 09:16:49;;;;;;;35.55;19.23;;;;;;;;;;5014206;28;20022;-57
2021/03/30 09:19:16;;;;;;;32.45;18.90;;;;;;;;;;5013973;28;20104;-56
2021/03/30 09:21:43;;;;;;;36.55;17.35;;;;;;;;;;5013927;28;20433;-57
2021/03/30 09:24:17;;;;;;;34.75;16.30;;;;;;;;;;5014032;28;20029;-56
2021/03/30 09:26:43;;;;;;;37.95;18.98;;;;;;;;;;5014037;28;20029;-55
2021/03/30 09:29:09;;;;;;;32.72;16.88;;;;;;;;;;5012956;28;20034;-55
2021/03/30 09:31:36;;;;;;;30.08;18.40;;;;;;;;;;5013861;28;20057;-57
2021/03/30 09:34:02;;;;;;;34.92;19.13;;;;;;;;;;5013982;28;20026;-57
2021/03/30 09:36:28;;;;;;;51.30;27.42;;;;;;;;;;5013729;28;20382;-54
2021/03/30 09:38:58;;;;;;;38.55;18.40;;;;;;;;;;5013762;28;20029;-55
2021/03/30 09:41:54;;;;;;;44.45;23.02;;;;;;;;;;5013923;28;20382;-59
2021/03/30 09:44:21;;;;;;;32.75;18.30;;;;;;;;;;4953382;29;20067;-58
2021/03/30 09:46:48;;;;;;;31.67;17.90;;;;;;;;;;4953201;29;20110;-55
2021/03/30 09:49:20;;;;;;;41.40;20.80;;;;;;;;;;4953213;29;20499;-55
2021/03/30 09:51:50;;;;;;;45.28;22.38;;;;;;;;;;4953237;29;20122;-54
2021/03/30 09:54:24;;;;;;;35.10;19.17;;;;;;;;;;4953074;29;20035;-56
2021/03/30 09:56:57;;;;;;;36.33;18.15;;;;;;;;;;4953229;29;20027;-55
2021/03/30 09:59:23;;;;;;;106.28;58.03;;;;;;;;;;4953343;29;20035;-57
2021/03/30 10:01:53;;;;;;;45.60;25.90;;;;;;;;;;4953387;29;20074;-57
2021/03/30 10:04:22;;;;;;;38.47;23.02;;;;;;;;;;4953413;29;20114;-54
2021/03/30 10:06:48;;;;;;;30.42;15.10;;;;;;;;;;4953034;29;20027;-54
2021/03/30 10:09:14;;;;;;;37.08;19.15;;;;;;;;;;4952885;29;20063;-54
2021/03/30 10:11:40;;;;;;;54.00;26.90;;;;;;;;;;4952823;29;20043;-53
2021/03/30 10:14:16;;;;;;;35.72;19.70;;;;;;;;;;4953069;29;20522;-54
2021/03/30 10:16:42;;;;;;;27.60;12.38;;;;;;;;;;4953027;29;20070;-53
2021/03/30 10:19:09;;;;;;;30.92;16.35;;;;;;;;;;4953007;29;20166;-52
2021/03/30 10:27:39;;;;;;;21.02;11.02;;;;;;;;;;4965474;28;20047;-54
2021/03/30 10:30:06;;;;;;;28.75;14.07;;;;;;;;;;4972884;28;20039;-54
2021/03/30 10:32:51;;;;;;;21.35;11.07;;;;;;;;;;4973169;28;20471;-52
2021/03/30 10:35:17;;;;;;;22.73;11.90;;;;;;;;;;4973632;28;20093;-50
2021/03/30 10:37:44;;;;;;;21.35;11.27;;;;;;;;;;4973068;28;20018;-50
2021/03/30 10:40:10;;;;;;;30.73;13.35;;;;;;;;;;4975473;28;20031;-51
2021/03/30 10:42:40;;;;;;;20.75;9.38;;;;;;;;;;4976513;28;20023;-55
2021/03/30 10:45:08;;;;;;;29.30;14.05;;;;;;;;;;4976930;28;20038;-51
2021/03/30 10:47:35;;;;;;;24.65;12.32;;;;;;;;;;4975966;28;20029;-51
2021/03/30 10:50:03;;;;;;;24.42;12.23;;;;;;;;;;4976489;28;20027;-50
2021/03/30 10:52:32;;;;;;;27.08;10.82;;;;;;;;;;4975201;28;20466;-53
2021/03/30 10:54:59;;;;;;;24.70;12.30;;;;;;;;;;4975491;28;20487;-50
2021/03/30 10:57:32;;;;;;;23.35;12.13;;;;;;;;;;4976271;28;20038;-49
2021/03/30 10:59:58;;;;;;;19.55;10.43;;;;;;;;;;4976205;28;20022;-53
2021/03/30 11:02:25;;;;;;;22.38;10.45;;;;;;;;;;4976414;28;20054;-50
2021/03/30 11:04:51;;;;;;;21.63;11.05;;;;;;;;;;4975966;28;20467;-49
2021/03/30 11:07:17;;;;;;;25.73;13.73;;;;;;;;;;4976222;28;20033;-48
2021/03/30 11:09:43;;;;;;;18.23;10.25;;;;;;;;;;4976077;28;20039;-48
2021/03/30 11:12:10;;;;;;;21.40;9.55;;;;;;;;;;4975740;28;20054;-48
2021/03/30 11:14:36;;;;;;;19.77;8.93;;;;;;;;;;4976226;28;20031;-50
2021/03/30 11:17:03;;;;;;;16.15;8.35;;;;;;;;;;4976010;28;20034;-51
2021/03/30 11:19:29;;;;;;;17.75;8.85;;;;;;;;;;4976041;28;20027;-50
2021/03/30 11:21:56;;;;;;;25.17;8.65;;;;;;;;;;4976275;28;20031;-50
2021/03/30 11:24:24;;;;;;;13.50;7.50;;;;;;;;;;4975950;28;20114;-49
2021/03/30 11:26:52;;;;;;;27.80;7.80;;;;;;;;;;4975536;28;20051;-50
2021/03/30 11:29:56;;;;;;;18.00;7.93;;;;;;;;;;4975757;28;20503;-50
2021/03/30 11:40:18;;;;;;;13.40;6.50;;;;;;;;;;4916266;29;20068;-49
2021/03/30 11:42:44;;;;;;;11.90;6.10;;;;;;;;;;4915997;29;20127;-49
2021/03/30 11:45:12;;;;;;;15.48;7.00;;;;;;;;;;4915872;29;20493;-52
2021/03/30 11:47:38;;;;;;;14.07;6.43;;;;;;;;;;4915993;29;20512;-50
2021/03/30 11:50:08;;;;;;;18.27;7.90;;;;;;;;;;4915662;29;20432;-53
2021/03/30 11:52:34;;;;;;;13.35;6.28;;;;;;;;;;4915072;29;20381;-53
2021/03/30 11:55:01;;;;;;;11.40;6.10;;;;;;;;;;4915392;29;20032;-50
2021/03/30 11:57:27;;;;;;;16.30;6.20;;;;;;;;;;4915966;29;20036;-52
2021/03/30 11:59:53;;;;;;;20.40;7.10;;;;;;;;;;4915803;29;20112;-53
2021/03/30 12:02:22;;;;;;;15.18;6.25;;;;;;;;;;4915883;29;20060;-51
2021/03/30 12:04:48;;;;;;;15.85;6.78;;;;;;;;;;4915795;29;20124;-53
2021/03/30 12:07:14;;;;;;;11.30;5.35;;;;;;;;;;4915567;29;20473;-53
2021/03/30 12:09:40;;;;;;;14.73;5.18;;;;;;;;;;4954325;28;20518;-53
2021/03/30 12:12:06;;;;;;;14.90;5.80;;;;;;;;;;4974852;28;20082;-49
2021/03/30 12:14:33;;;;;;;17.17;5.70;;;;;;;;;;4975155;28;20038;-48
2021/03/30 12:16:59;;;;;;;29.75;6.82;;;;;;;;;;4974675;28;20023;-53
2021/03/30 12:19:26;;;;;;;12.48;6.13;;;;;;;;;;4975123;28;20060;-50
2021/03/30 12:21:53;;;;;;;11.88;5.35;;;;;;;;;;4974864;28;20034;-53
2021/03/30 12:24:19;;;;;;;10.18;5.57;;;;;;;;;;4974788;28;20482;-54
2021/03/30 12:26:45;;;;;;;13.35;5.75;;;;;;;;;;4974593;28;20087;-52
2021/03/30 12:29:12;;;;;;;17.52;6.55;;;;;;;;;;4974348;28;20038;-50
2021/03/30 12:31:38;;;;;;;25.13;8.90;;;;;;;;;;4974681;28;20023;-57
2021/03/30 12:34:04;;;;;;;20.35;9.65;;;;;;;;;;4974265;28;20084;-53
2021/03/30 12:36:30;;;;;;;41.00;24.15;;;;;;;;;;4974766;28;20023;-54
2021/03/30 12:38:57;;;;;;;59.28;33.72;;;;;;;;;;4974277;28;20029;-51
2021/03/30 12:41:23;;;;;;;57.10;29.92;;;;;;;;;;4974467;28;20030;-50
2021/03/30 12:43:50;;;;;;;37.65;14.23;;;;;;;;;;4973947;28;20038;-53
2021/03/30 12:46:16;;;;;;;28.95;13.25;;;;;;;;;;4956879;28;20114;-56
2021/03/30 12:48:42;;;;;;;31.58;15.80;;;;;;;;;;4974431;28;20070;-54
2021/03/30 12:51:09;;;;;;;56.42;28.60;;;;;;;;;;4974296;28;20034;-54
2021/03/30 12:53:35;;;;;;;37.75;20.73;;;;;;;;;;4974109;28;20023;-58
2021/03/30 12:56:01;;;;;;;44.45;23.90;;;;;;;;;;4973942;28;20066;-53
2021/03/30 12:58:27;;;;;;;38.33;19.63;;;;;;;;;;4974055;28;20023;-55
2021/03/30 13:00:53;;;;;;;18.85;10.40;;;;;;;;;;4973641;28;20034;-53
2021/03/30 13:03:20;;;;;;;85.78;48.55;;;;;;;;;;4973574;28;20163;-53
2021/03/30 13:05:46;;;;;;;42.40;24.95;;;;;;;;;;4973126;28;20031;-50
2021/03/30 13:08:12;;;;;;;47.97;27.35;;;;;;;;;;4973020;28;20043;-55
2021/03/30 13:10:38;;;;;;;49.42;23.65;;;;;;;;;;4972841;28;20031;-48
2021/03/30 13:13:04;;;;;;;115.13;59.95;;;;;;;;;;4972913;28;20038;-54
2021/03/30 13:15:30;;;;;;;54.58;22.77;;;;;;;;;;4972840;28;20558;-54
2021/03/30 13:17:56;;;;;;;77.57;34.60;;;;;;;;;;4972845;28;20109;-54
2021/03/30 13:20:22;;;;;;;57.10;31.10;;;;;;;;;;4972728;28;20034;-51
2021/03/30 13:22:49;;;;;;;97.18;53.97;;;;;;;;;;4973081;28;20037;-56
2021/03/30 13:25:22;;;;;;;65.10;36.45;;;;;;;;;;4972520;28;20089;-51
2021/03/30 13:27:48;;;;;;;50.67;28.60;;;;;;;;;;4972691;28;20043;-52
2021/03/30 13:30:15;;;;;;;41.58;21.33;;;;;;;;;;4972971;28;20082;-53
2021/03/30 13:32:41;;;;;;;53.85;28.13;;;;;;;;;;4973277;28;20033;-52
2021/03/30 13:35:07;;;;;;;67.53;35.88;;;;;;;;;;4973675;28;20051;-49
2021/03/30 13:37:33;;;;;;;99.38;54.28;;;;;;;;;;4973465;28;20031;-53
2021/03/30 13:39:59;;;;;;;46.47;26.00;;;;;;;;;;4973597;28;20061;-49
2021/03/30 13:42:25;;;;;;;32.03;16.88;;;;;;;;;;4973499;28;20058;-49
2021/03/30 13:44:52;;;;;;;64.88;28.83;;;;;;;;;;4972908;28;20030;-53
2021/03/30 13:47:18;;;;;;;45.45;22.42;;;;;;;;;;4973544;28;20027;-54
2021/03/30 13:49:44;;;;;;;29.90;17.15;;;;;;;;;;4973407;28;20089;-52
2021/03/30 13:52:10;;;;;;;37.25;17.55;;;;;;;;;;4973832;28;20813;-54
2021/03/30 13:54:37;;;;;;;29.95;14.48;;;;;;;;;;4973025;28;20026;-51
2021/03/30 13:57:03;;;;;;;28.52;13.82;;;;;;;;;;4973318;28;20518;-54
2021/03/30 13:59:31;;;;;;;23.83;9.65;;;;;;;;;;4972906;28;20031;-51
2021/03/30 14:02:00;;;;;;;33.47;13.57;;;;;;;;;;4973371;28;20380;-56
2021/03/30 14:04:26;;;;;;;35.42;17.48;;;;;;;;;;4973394;28;20030;-51
2021/03/30 14:06:55;;;;;;;29.38;11.70;;;;;;;;;;4973120;28;20027;-56
2021/03/30 14:09:22;;;;;;;19.33;8.35;;;;;;;;;;4973187;28;20570;-51
2021/03/30 14:22:10;;;;;;;67.53;24.80;;;;;;;;;;4936477;29;20027;-49
2021/03/30 14:24:55;;;;;;;47.72;18.25;;;;;;;;;;4924096;29;20040;-49
2021/03/30 14:27:21;;;;;;;54.00;21.65;;;;;;;;;;4916990;29;20104;-56
2021/03/30 14:29:50;;;;;;;52.75;21.05;;;;;;;;;;4917408;29;20040;-51
2021/03/30 14:32:18;;;;;;;45.45;19.40;;;;;;;;;;4916902;29;20544;-50
2021/03/30 14:34:44;;;;;;;38.00;15.48;;;;;;;;;;4917267;29;20054;-50
2021/03/30 14:37:11;;;;;;;38.67;18.70;;;;;;;;;;4917082;29;20088;-48
2021/03/30 14:39:38;;;;;;;35.80;17.48;;;;;;;;;;4917191;29;20127;-48
2021/03/30 14:44:41;;;;;;;42.55;17.52;;;;;;;;;;4917076;29;20197;-49
2021/03/30 14:52:31;;;;;;;36.72;17.35;;;;;;;;;;4916464;29;20035;-48
2021/03/30 14:57:31;;;;;;;29.23;13.90;;;;;;;;;;4915999;29;20131;-48
2021/03/30 15:00:00;;;;;;;30.20;13.80;;;;;;;;;;4965202;28;20062;-50
2021/03/30 15:02:35;;;;;;;32.42;16.85;;;;;;;;;;4975290;28;20027;-53
2021/03/30 15:05:02;;;;;;;31.45;12.68;;;;;;;;;;4975395;28;20019;-51